createdAt,value
2023-11-09T00:02:57.034Z,19.77
2023-11-09T00:07:59.280Z,19.77
2023-11-09T00:13:01.539Z,19.76
2023-11-09T00:18:03.801Z,19.78
2023-11-09T00:23:05.999Z,19.77
2023-11-09T00:28:08.682Z,19.77
2023-11-09T00:33:11.112Z,19.74
2023-11-09T00:38:16.261Z,19.76
2023-11-09T00:43:18.548Z,19.76
2023-11-09T00:48:20.815Z,19.76
2023-11-09T00:53:23.193Z,19.75
2023-11-09T00:58:25.521Z,19.74
2023-11-09T01:03:27.889Z,19.74
2023-11-09T01:08:30.786Z,19.74
2023-11-09T01:13:34.535Z,19.74
2023-11-09T01:18:37.870Z,19.72
2023-11-09T01:23:39.987Z,19.72
2023-11-09T01:28:42.161Z,19.72
2023-11-09T01:33:44.408Z,19.71
2023-11-09T01:38:46.577Z,19.76
2023-11-09T01:43:59.605Z,19.72
2023-11-09T01:49:02.655Z,19.72
2023-11-09T01:54:07.417Z,19.69
2023-11-09T01:59:11.460Z,19.71
2023-11-09T02:04:14.405Z,19.69
2023-11-09T02:09:16.819Z,19.69
2023-11-09T02:14:20.712Z,19.69
2023-11-09T02:19:24.130Z,19.68
2023-11-09T02:24:27.920Z,19.69
2023-11-09T02:29:30.144Z,19.68
2023-11-09T02:34:34.484Z,19.68
2023-11-09T02:39:36.865Z,19.67
2023-11-09T02:44:40.736Z,19.68
2023-11-09T02:49:42.946Z,19.67
2023-11-09T02:54:45.167Z,19.68
2023-11-09T02:59:48.381Z,19.71
2023-11-09T03:04:50.773Z,19.67
2023-11-09T03:09:53.221Z,19.66
2023-11-09T03:14:55.731Z,19.66
2023-11-09T03:19:59.373Z,19.67
2023-11-09T03:25:01.624Z,19.65
2023-11-09T03:30:04.232Z,19.65
2023-11-09T03:35:08.088Z,19.64
2023-11-09T03:40:12.482Z,19.65
2023-11-09T03:45:15.281Z,19.64
2023-11-09T03:50:17.629Z,19.63
2023-11-09T03:55:19.946Z,19.63
2023-11-09T04:00:22.172Z,19.61
2023-11-09T04:05:24.317Z,19.63
2023-11-09T04:10:26.399Z,19.62
2023-11-09T04:15:28.614Z,19.61
2023-11-09T04:20:30.690Z,19.63
2023-11-09T04:25:32.872Z,19.62
2023-11-09T04:30:35.179Z,19.61
2023-11-09T04:35:37.663Z,19.62
2023-11-09T04:40:40.002Z,19.61
2023-11-09T04:45:43.875Z,19.61
2023-11-09T04:50:50.456Z,19.60
2023-11-09T04:55:58.974Z,19.59
2023-11-09T05:01:19.755Z,19.59
2023-11-09T05:06:40.652Z,19.58
2023-11-09T05:11:42.857Z,19.59
2023-11-09T05:16:45.200Z,19.58
2023-11-09T05:21:47.339Z,19.58
2023-11-09T05:26:52.380Z,19.58
2023-11-09T05:31:54.554Z,19.56
2023-11-09T05:36:57.286Z,19.56
2023-11-09T05:42:00.932Z,19.56
2023-11-09T05:47:02.970Z,19.52
2023-11-09T05:52:05.395Z,19.53
2023-11-09T05:57:07.636Z,19.55
2023-11-09T06:02:09.817Z,19.56
2023-11-09T06:07:12.925Z,19.56
2023-11-09T06:12:17.152Z,19.57
2023-11-09T06:17:19.297Z,19.56
2023-11-09T06:22:21.321Z,19.55
2023-11-09T06:27:23.465Z,19.54
2023-11-09T06:32:26.612Z,19.53
2023-11-09T06:37:29.319Z,19.53
2023-11-09T06:42:31.591Z,19.52
2023-11-09T06:47:37.059Z,19.53
2023-11-09T06:52:41.071Z,19.54
2023-11-09T06:57:44.953Z,19.52
2023-11-09T07:02:49.038Z,19.50
2023-11-09T07:07:52.199Z,19.51
2023-11-09T07:12:54.357Z,19.51
2023-11-09T07:17:56.610Z,19.49
2023-11-09T07:23:02.321Z,19.51
2023-11-09T07:28:05.963Z,19.51
2023-11-09T07:33:08.312Z,19.48
2023-11-09T07:38:15.332Z,19.51
2023-11-09T07:43:17.733Z,19.51
2023-11-09T07:48:22.840Z,19.51
2023-11-09T07:53:25.231Z,19.48
2023-11-09T07:58:27.480Z,19.47
2023-11-09T08:03:29.994Z,19.50
2023-11-09T08:08:32.240Z,19.49
2023-11-09T08:13:34.912Z,19.48
2023-11-09T08:18:37.231Z,19.50
2023-11-09T08:23:39.830Z,19.49
2023-11-09T08:28:42.204Z,19.47
2023-11-09T08:33:44.736Z,19.49
2023-11-09T08:38:47.201Z,19.47
2023-11-09T08:43:51.120Z,19.50
2023-11-09T08:48:54.037Z,19.52
2023-11-09T08:53:57.655Z,19.51
2023-11-09T08:59:01.140Z,19.52
2023-11-09T09:04:04.883Z,19.51
2023-11-09T09:09:14.194Z,19.50
2023-11-09T09:14:16.484Z,19.52
2023-11-09T09:19:19.365Z,19.52
2023-11-09T09:24:21.975Z,19.53
2023-11-09T09:29:28.796Z,19.53
2023-11-09T09:34:32.558Z,19.51
2023-11-09T09:39:34.684Z,19.53
2023-11-09T09:44:39.155Z,19.53
2023-11-09T09:49:42.649Z,19.51
2023-11-09T09:54:45.078Z,19.50
2023-11-09T09:59:48.748Z,19.50
2023-11-09T10:04:52.604Z,19.48
2023-11-09T10:09:54.715Z,19.50
2023-11-09T10:14:57.920Z,19.52
2023-11-09T10:20:00.150Z,19.51
2023-11-09T10:25:02.473Z,19.52
2023-11-09T10:30:07.746Z,19.56
2023-11-09T10:35:12.174Z,19.51
2023-11-09T10:40:16.104Z,19.52
2023-11-09T10:45:23.604Z,19.52
2023-11-09T10:50:28.013Z,19.53
2023-11-09T10:55:32.316Z,19.52
2023-11-09T11:00:36.337Z,19.53
2023-11-09T11:05:42.624Z,19.53
2023-11-09T11:10:53.008Z,19.51
2023-11-09T11:16:11.960Z,19.50
2023-11-09T11:21:37.490Z,19.46
2023-11-09T11:27:16.052Z,19.46
2023-11-09T11:32:39.685Z,19.46
2023-11-09T11:37:42.309Z,19.47
2023-11-09T11:42:45.656Z,19.48
2023-11-09T11:47:48.017Z,19.46
2023-11-09T11:52:50.373Z,19.46
2023-11-09T11:58:04.782Z,19.44
2023-11-09T12:03:11.228Z,19.44
2023-11-09T12:08:14.253Z,19.46
2023-11-09T12:13:16.519Z,19.45
2023-11-09T12:18:18.588Z,19.43
2023-11-09T12:23:20.839Z,19.43
2023-11-09T12:28:25.678Z,19.44
2023-11-09T12:33:28.024Z,19.43
2023-11-09T12:38:31.472Z,19.45
2023-11-09T12:43:44.419Z,19.44
2023-11-09T12:48:53.399Z,19.46
2023-11-09T12:53:59.231Z,19.47
2023-11-09T12:59:01.955Z,19.46
2023-11-09T13:04:04.396Z,19.44
2023-11-09T13:09:17.252Z,19.45
2023-11-09T13:14:24.100Z,19.43
2023-11-09T13:19:28.088Z,19.44
2023-11-09T13:24:34.843Z,19.45
2023-11-09T13:29:40.375Z,19.45
2023-11-09T13:34:48.743Z,19.45
2023-11-09T13:40:08.951Z,19.44
2023-11-09T13:45:29.743Z,19.43
2023-11-09T13:50:33.335Z,19.42
2023-11-09T13:56:00.804Z,19.38
2023-11-09T14:01:02.826Z,19.42
2023-11-09T14:06:10.421Z,19.43
2023-11-09T14:11:12.856Z,19.43
2023-11-09T14:16:24.605Z,19.43
2023-11-09T14:21:34.107Z,19.43
2023-11-09T14:26:38.029Z,19.40
2023-11-09T14:31:41.219Z,19.36
2023-11-09T14:36:48.739Z,19.42
2023-11-09T14:41:51.172Z,19.41
2023-11-09T14:46:55.967Z,19.43
2023-11-09T14:52:02.247Z,19.44
2023-11-09T14:57:05.221Z,19.42
2023-11-09T15:02:07.505Z,19.44
2023-11-09T15:07:21.582Z,19.43
2023-11-09T15:12:24.068Z,19.40
2023-11-09T15:17:27.022Z,19.38
2023-11-09T15:22:29.178Z,19.39
2023-11-09T15:27:31.697Z,19.39
2023-11-09T15:32:35.010Z,19.43
2023-11-09T15:37:39.856Z,19.45
2023-11-09T15:42:52.977Z,19.46
2023-11-09T15:47:58.297Z,19.46
2023-11-09T15:53:00.500Z,19.46
2023-11-09T15:58:08.316Z,19.48
2023-11-09T16:03:11.829Z,19.49
2023-11-09T16:08:14.367Z,19.47
2023-11-09T16:13:16.510Z,19.48
2023-11-09T16:18:18.806Z,19.48
2023-11-09T16:23:22.041Z,19.49
2023-11-09T16:28:24.706Z,19.47
2023-11-09T16:33:26.775Z,19.47
2023-11-09T16:38:28.953Z,19.46
2023-11-09T16:43:33.207Z,19.46
2023-11-09T16:48:40.163Z,19.47
2023-11-09T16:53:45.261Z,19.49
2023-11-09T16:58:47.565Z,19.48
2023-11-09T17:03:50.373Z,19.50
2023-11-09T17:08:52.676Z,19.47
2023-11-09T17:13:56.367Z,19.47
2023-11-09T17:19:00.779Z,19.49
2023-11-09T17:24:03.300Z,19.49
2023-11-09T17:29:05.904Z,19.49
2023-11-09T17:34:08.040Z,19.47
2023-11-09T17:39:11.146Z,19.48
2023-11-09T17:44:13.870Z,19.47
2023-11-09T17:49:17.033Z,19.47
2023-11-09T17:54:20.006Z,19.43
2023-11-09T17:59:22.207Z,19.42
2023-11-09T18:04:26.893Z,19.41
2023-11-09T18:09:29.084Z,19.40
2023-11-09T18:14:31.933Z,19.38
2023-11-09T18:19:34.026Z,19.39
2023-11-09T18:24:36.548Z,19.41
2023-11-09T18:29:39.200Z,19.40
2023-11-09T18:34:42.961Z,19.38
2023-11-09T18:39:48.493Z,19.38
2023-11-09T18:44:50.712Z,19.42
2023-11-09T18:54:57.916Z,19.40
2023-11-09T19:00:00.250Z,19.46
2023-11-09T19:05:02.868Z,19.43
2023-11-09T19:10:07.539Z,19.47
2023-11-09T19:15:11.068Z,19.47
2023-11-09T19:20:13.083Z,19.44
2023-11-09T19:25:14.982Z,19.44
2023-11-09T19:30:21.096Z,19.45
2023-11-09T19:35:23.219Z,19.44
2023-11-09T19:40:25.354Z,19.43
2023-11-09T19:45:28.663Z,19.44
2023-11-09T19:50:30.733Z,19.45
2023-11-09T19:55:32.837Z,19.45
2023-11-09T20:00:35.185Z,19.46
2023-11-09T20:05:37.326Z,19.46
2023-11-09T20:10:39.565Z,19.46
2023-11-09T20:15:41.998Z,19.43
2023-11-09T20:20:44.528Z,19.44
2023-11-09T20:25:46.788Z,19.45
2023-11-09T20:30:48.915Z,19.44
2023-11-09T20:35:51.242Z,19.44
2023-11-09T20:40:53.413Z,19.39
2023-11-09T20:45:55.630Z,19.43
2023-11-09T20:50:58.533Z,19.44
2023-11-09T20:56:00.592Z,19.43
2023-11-09T21:01:04.260Z,19.43
2023-11-09T21:06:11.455Z,19.38
2023-11-09T21:11:14.605Z,19.41
2023-11-09T21:16:17.003Z,19.43
2023-11-09T21:21:19.185Z,19.41
2023-11-09T21:26:21.258Z,19.41
2023-11-09T21:31:24.905Z,19.42
2023-11-09T21:36:27.612Z,19.40
2023-11-09T21:41:29.789Z,19.42
2023-11-09T21:46:31.904Z,19.39
2023-11-09T21:51:42.273Z,19.39
2023-11-09T21:56:46.013Z,19.40
2023-11-09T22:01:48.157Z,19.38
2023-11-09T22:06:50.403Z,19.39
2023-11-09T22:11:52.843Z,19.39
2023-11-09T22:16:55.137Z,19.39
2023-11-09T22:21:57.951Z,19.39
2023-11-09T22:27:00.086Z,19.37
2023-11-09T22:32:02.360Z,19.37
2023-11-09T22:37:05.861Z,19.37
2023-11-09T22:42:10.761Z,19.37
2023-11-09T22:47:14.122Z,19.35
2023-11-09T22:52:16.330Z,19.36
2023-11-09T22:57:18.580Z,19.35
2023-11-09T23:02:20.660Z,19.34
2023-11-09T23:07:22.732Z,19.35
2023-11-09T23:12:24.925Z,19.35
2023-11-09T23:17:27.064Z,19.35
2023-11-09T23:22:29.148Z,19.35
2023-11-09T23:27:31.272Z,19.36
2023-11-09T23:32:33.484Z,19.34
2023-11-09T23:37:35.591Z,19.34
2023-11-09T23:42:37.826Z,19.35
2023-11-09T23:47:40.446Z,19.35
2023-11-09T23:52:42.996Z,19.33
2023-11-09T23:57:46.393Z,19.33
